Time;durP1;ratioP1;P1;durP2;ratioP2;P2;SDS_P1;SDS_P2;PMS_P1;PMS_P2;Temp;Humidity;BMP_temperature;BMP_pressure;BME280_temperature;BME280_humidity;BME280_pressure;Samples;Min_cycle;Max_cycle;Signal;HPM_P1;HPM_P2
2024/01/09 00:01:33;;;;;;;9.67;8.43;;;-1.20;44.30;;;;;;21032;6711;120309;-79
2024/01/09 00:04:09;;;;;;;11.70;10.50;;;-1.20;44.10;;;;;;20649;6711;309063;-80
2024/01/09 00:06:44;;;;;;;11.87;8.97;;;-1.20;44.00;;;;;;21015;6711;117345;-80
2024/01/09 00:09:21;;;;;;;9.70;8.60;;;-1.50;44.30;;;;;;21031;6711;117387;-80
2024/01/09 00:11:56;;;;;;;7.93;7.13;;;-1.50;44.30;;;;;;21035;6711;117427;-80
2024/01/09 00:14:32;;;;;;;11.83;10.63;;;-1.70;44.70;;;;;;20619;6711;278183;-80
2024/01/09 00:17:07;;;;;;;12.00;10.80;;;-1.60;44.70;;;;;;20806;6711;276718;-80
2024/01/09 00:19:43;;;;;;;12.30;11.10;;;-1.30;44.10;;;;;;20810;6711;305195;-83
2024/01/09 00:22:19;;;;;;;11.30;8.90;;;-1.00;43.50;;;;;;21033;6711;117319;-80
2024/01/09 00:24:55;;;;;;;11.70;10.60;;;-1.10;43.70;;;;;;20621;6767;277602;-81
2024/01/09 00:27:31;;;;;;;10.13;8.50;;;-1.10;43.70;;;;;;21036;6711;117224;-80
2024/01/09 00:30:07;;;;;;;9.67;8.47;;;-1.50;44.20;;;;;;21035;6711;117309;-80
2024/01/09 00:32:47;;;;;;;11.63;10.53;;;-1.50;43.80;;;;;;20780;6711;305059;-79
2024/01/09 00:35:19;;;;;;;9.90;8.87;;;-1.40;44.00;;;;;;21014;6711;117561;-80
2024/01/09 00:37:55;;;;;;;10.97;8.33;;;-1.60;44.10;;;;;;21032;6711;116878;-79
2024/01/09 00:40:30;;;;;;;11.27;8.50;;;-1.70;44.00;;;;;;21031;6711;117847;-80
2024/01/09 00:43:06;;;;;;;9.37;7.87;;;-1.90;44.40;;;;;;20930;6708;117858;-80
2024/01/09 00:45:42;;;;;;;11.77;10.67;;;-2.00;44.80;;;;;;20825;6710;306444;-80
2024/01/09 00:48:18;;;;;;;12.00;10.80;;;-1.50;44.10;;;;;;20820;6710;306046;-80
2024/01/09 00:50:54;;;;;;;12.50;11.20;;;-1.50;44.00;;;;;;20796;6710;308680;-80
2024/01/09 00:53:29;;;;;;;11.77;8.63;;;-1.20;43.30;;;;;;20928;6710;120833;-80
2024/01/09 00:56:05;;;;;;;12.50;11.27;;;-1.40;43.10;;;;;;20823;6710;277536;-80
2024/01/09 00:58:44;;;;;;;11.83;10.67;;;-1.30;43.30;;;;;;20824;6710;276737;-80
2024/01/09 01:01:16;;;;;;;11.65;10.57;;;-1.10;42.70;;;;;;20768;6710;306371;-80
2024/01/09 01:03:52;;;;;;;12.17;9.13;;;-0.90;42.20;;;;;;20859;6711;117605;-80
2024/01/09 01:06:27;;;;;;;9.87;7.83;;;-1.10;42.10;;;;;;21028;6711;117126;-79
2024/01/09 01:09:03;;;;;;;11.80;10.67;;;-1.40;42.60;;;;;;20786;6711;424945;-80
2024/01/09 01:11:38;;;;;;;10.23;8.30;;;-1.50;42.70;;;;;;21014;6711;117312;-80
2024/01/09 01:14:15;;;;;;;10.97;8.50;;;-1.60;42.80;;;;;;20845;6711;117311;-81
2024/01/09 01:16:51;;;;;;;11.85;10.70;;;-1.80;43.20;;;;;;20785;6711;277111;-81
2024/01/09 01:19:27;;;;;;;9.33;8.30;;;-1.70;43.40;;;;;;21022;6711;117537;-81
2024/01/09 01:22:03;;;;;;;11.40;10.30;;;-1.60;43.30;;;;;;20808;6711;276189;-81
2024/01/09 01:24:41;;;;;;;12.87;11.60;;;-1.70;43.20;;;;;;20606;6711;308619;-81
2024/01/09 01:27:14;;;;;;;12.57;11.27;;;-1.40;42.60;;;;;;20823;6710;277372;-81
2024/01/09 01:29:50;;;;;;;12.20;11.00;;;-1.20;42.00;;;;;;20836;6711;292143;-83
2024/01/09 01:32:27;;;;;;;11.10;8.37;;;-1.00;41.50;;;;;;21027;6711;117192;-81
2024/01/09 01:35:02;;;;;;;11.82;10.73;;;-1.20;41.50;;;;;;20827;6711;305189;-80
2024/01/09 01:37:38;;;;;;;9.77;8.63;;;-1.30;41.80;;;;;;21104;6711;116299;-82
2024/01/09 01:40:14;;;;;;;9.63;7.90;;;-1.40;42.10;;;;;;21059;6711;118070;-81
2024/01/09 01:42:49;;;;;;;8.33;7.10;;;-1.70;42.60;;;;;;20969;6711;127069;-82
2024/01/09 01:45:25;;;;;;;11.97;10.60;;;-1.90;43.10;;;;;;20852;6711;276817;-81
2024/01/09 01:48:04;;;;;;;12.17;10.97;;;-1.90;43.00;;;;;;20845;6711;305108;-83
2024/01/09 01:50:41;;;;;;;11.77;10.68;;;-1.60;42.50;;;;;;20862;6711;306640;-80
2024/01/09 01:53:15;;;;;;;9.63;8.53;;;-1.40;41.80;;;;;;20983;6710;117963;-80
2024/01/09 01:55:50;;;;;;;9.50;7.83;;;-1.50;41.60;;;;;;21086;6710;115999;-80
2024/01/09 01:58:27;;;;;;;7.77;7.03;;;-1.80;42.20;;;;;;21086;6710;117287;-80
2024/01/09 02:01:02;;;;;;;11.33;10.27;;;-2.10;42.70;;;;;;20846;6710;319558;-81
2024/01/09 02:03:37;;;;;;;12.00;10.70;;;-2.00;42.80;;;;;;20750;6710;307640;-80
2024/01/09 02:06:13;;;;;;;12.40;11.20;;;-1.70;42.20;;;;;;20835;6710;305689;-81
2024/01/09 02:08:49;;;;;;;12.53;9.47;;;-1.60;41.20;;;;;;21037;6710;117499;-81
2024/01/09 02:11:25;;;;;;;9.07;7.77;;;-1.60;41.20;;;;;;21045;6710;117381;-81
2024/01/09 02:14:00;;;;;;;11.40;8.00;;;-1.90;41.60;;;;;;20896;6711;117767;-80
2024/01/09 02:16:36;;;;;;;12.53;10.57;;;-2.10;42.30;;;;;;20825;6711;306101;-81
2024/01/09 02:19:11;;;;;;;11.90;10.67;;;-2.10;42.90;;;;;;20815;6710;276603;-81
2024/01/09 02:21:50;;;;;;;9.60;8.57;;;-1.80;41.80;;;;;;21049;6711;117334;-81
2024/01/09 02:24:26;;;;;;;14.73;9.00;;;-1.80;41.60;;;;;;20865;6711;118939;-79
2024/01/09 02:27:07;;;;;;;12.17;10.70;;;-2.10;41.90;;;;;;20834;6711;305104;-81
2024/01/09 02:29:50;;;;;;;11.53;7.83;;;-2.10;41.80;;;;;;21074;6711;116814;-81
2024/01/09 02:32:22;;;;;;;11.60;10.53;;;-2.10;41.80;;;;;;20815;6711;298349;-82
2024/01/09 02:34:58;;;;;;;12.20;10.97;;;-2.00;41.60;;;;;;20790;6711;276244;-81
2024/01/09 02:37:34;;;;;;;8.90;8.00;;;-1.70;41.10;;;;;;21030;6711;118502;-81
2024/01/09 02:40:09;;;;;;;8.13;7.10;;;-1.80;41.00;;;;;;21035;6711;116891;-81
2024/01/09 02:42:45;;;;;;;9.70;7.83;;;-2.10;41.30;;;;;;20976;6711;117572;-81
2024/01/09 02:45:20;;;;;;;9.10;8.00;;;-2.30;41.80;;;;;;21031;6711;117119;-81
2024/01/09 02:47:59;;;;;;;8.40;7.47;;;-2.50;42.20;;;;;;21026;6711;117550;-81
2024/01/09 02:50:32;;;;;;;11.60;10.27;;;-2.50;42.40;;;;;;20823;6711;276667;-81
2024/01/09 02:53:08;;;;;;;11.33;8.47;;;-2.50;42.50;;;;;;20942;6711;117305;-81
2024/01/09 02:55:43;;;;;;;8.93;8.13;;;-2.40;42.30;;;;;;21034;6711;117103;-80
2024/01/09 02:58:22;;;;;;;12.03;10.83;;;-2.50;42.50;;;;;;20815;6711;306517;-81
2024/01/09 03:00:54;;;;;;;9.47;8.37;;;-2.40;42.40;;;;;;20922;6740;118310;-81
2024/01/09 03:03:30;;;;;;;9.23;8.10;;;-2.40;42.10;;;;;;20871;6741;117321;-81
2024/01/09 03:06:06;;;;;;;10.70;7.30;;;-2.50;42.20;;;;;;21033;6711;116575;-81
2024/01/09 03:08:44;;;;;;;12.20;11.00;;;-2.60;42.50;;;;;;20818;6710;305617;-81
2024/01/09 03:11:17;;;;;;;12.15;10.85;;;-2.50;42.40;;;;;;20815;6710;306418;-81
2024/01/09 03:13:52;;;;;;;9.40;8.23;;;-2.10;41.60;;;;;;20887;6710;117559;-81
2024/01/09 03:16:28;;;;;;;11.90;10.70;;;-2.10;41.30;;;;;;20823;6710;277938;-81
2024/01/09 03:19:04;;;;;;;11.93;10.73;;;-1.80;40.20;;;;;;20800;6710;306759;-82
2024/01/09 03:21:40;;;;;;;9.90;8.87;;;-1.80;40.20;;;;;;21041;6710;118233;-81
2024/01/09 03:24:16;;;;;;;11.77;10.57;;;-1.90;40.10;;;;;;20688;6711;307666;-80
2024/01/09 03:26:52;;;;;;;9.33;8.43;;;-2.00;40.30;;;;;;21023;6711;118452;-84
2024/01/09 03:29:27;;;;;;;13.03;11.70;;;-2.00;40.30;;;;;;20815;6711;334681;-81
2024/01/09 03:32:03;;;;;;;12.10;10.90;;;-2.00;40.20;;;;;;20818;6711;305507;-81
2024/01/09 03:34:42;;;;;;;10.20;8.70;;;-1.80;39.70;;;;;;20818;6711;117611;-81
2024/01/09 03:37:15;;;;;;;12.65;10.82;;;-1.90;39.60;;;;;;20797;6710;329674;-82
2024/01/09 03:39:51;;;;;;;12.47;11.20;;;-1.70;38.90;;;;;;20818;6711;279084;-82
2024/01/09 03:42:27;;;;;;;13.03;11.73;;;-1.70;38.90;;;;;;20802;6711;335803;-82
2024/01/09 03:45:03;;;;;;;9.60;8.00;;;-1.50;38.50;;;;;;21016;6711;120940;-82
2024/01/09 03:47:38;;;;;;;12.33;11.03;;;-1.60;38.90;;;;;;20824;6711;277058;-82
2024/01/09 03:50:15;;;;;;;11.60;10.48;;;-1.50;38.80;;;;;;20817;6711;277176;-82
2024/01/09 03:52:52;;;;;;;12.07;8.23;;;-1.50;38.60;;;;;;20964;6711;117666;-81
2024/01/09 03:55:27;;;;;;;10.57;7.80;;;-1.60;38.90;;;;;;21030;6711;116544;-81
2024/01/09 03:58:03;;;;;;;11.20;10.07;;;-2.00;39.20;;;;;;20819;6711;277388;-81
2024/01/09 04:00:38;;;;;;;12.88;11.50;;;-2.00;39.40;;;;;;20814;6711;305643;-81
2024/01/09 04:03:14;;;;;;;10.33;9.27;;;-1.70;39.10;;;;;;20927;6710;121621;-81
2024/01/09 04:05:49;;;;;;;11.73;10.53;;;-1.80;39.10;;;;;;20818;6711;295984;-82
2024/01/09 04:08:25;;;;;;;12.60;11.30;;;-1.80;39.10;;;;;;20819;6711;305650;-81
2024/01/09 04:11:04;;;;;;;12.30;11.00;;;-1.60;38.60;;;;;;20799;6711;277489;-82
2024/01/09 04:13:40;;;;;;;12.07;10.87;;;-1.40;38.00;;;;;;20679;6711;308656;-81
2024/01/09 04:16:15;;;;;;;9.40;8.40;;;-1.30;37.50;;;;;;21032;6711;117371;-78
2024/01/09 04:18:51;;;;;;;9.03;7.80;;;-1.50;37.90;;;;;;21011;6710;116938;-78
2024/01/09 04:21:27;;;;;;;12.47;11.17;;;-1.90;38.50;;;;;;20809;6710;305982;-80
2024/01/09 04:24:02;;;;;;;10.20;9.03;;;-1.90;38.90;;;;;;20866;6710;118453;-77
2024/01/09 04:26:38;;;;;;;12.60;11.30;;;-2.00;39.00;;;;;;20802;6710;306594;-79
2024/01/09 04:29:14;;;;;;;12.10;10.90;;;-1.70;38.50;;;;;;20801;6710;306514;-80
2024/01/09 04:31:50;;;;;;;9.90;8.90;;;-1.70;38.50;;;;;;21029;6710;119902;-78
2024/01/09 04:34:26;;;;;;;12.50;11.20;;;-1.80;38.80;;;;;;20625;6710;278241;-77
2024/01/09 04:37:01;;;;;;;12.63;11.43;;;-1.90;38.70;;;;;;20796;6711;306757;-78
2024/01/09 04:39:37;;;;;;;10.67;8.63;;;-1.70;38.30;;;;;;21041;6711;116779;-79
2024/01/09 04:42:13;;;;;;;12.37;11.07;;;-1.90;38.70;;;;;;20817;6711;277373;-81
2024/01/09 04:44:49;;;;;;;12.40;11.10;;;-1.80;38.80;;;;;;20569;6711;288325;-81
2024/01/09 04:47:25;;;;;;;10.63;8.70;;;-1.60;38.50;;;;;;21027;6711;117483;-77
2024/01/09 04:50:00;;;;;;;12.23;11.03;;;-1.80;38.40;;;;;;20812;6711;288577;-77
2024/01/09 04:52:36;;;;;;;10.30;8.77;;;-1.80;38.50;;;;;;21009;6711;117357;-76
2024/01/09 04:55:13;;;;;;;10.13;8.37;;;-2.20;40.10;;;;;;21014;6710;120162;-77
2024/01/09 04:57:48;;;;;;;12.17;10.83;;;-2.20;39.30;;;;;;20818;6711;279809;-78
2024/01/09 05:00:24;;;;;;;13.63;11.77;;;-1.90;39.50;;;;;;20817;6711;276314;-76
2024/01/09 05:03:00;;;;;;;12.73;11.43;;;-1.70;38.30;;;;;;20736;6711;305484;-78
2024/01/09 05:05:36;;;;;;;12.20;10.97;;;-1.70;38.10;;;;;;20806;6711;304745;-77
2024/01/09 05:08:11;;;;;;;11.97;8.93;;;-1.50;37.80;;;;;;21029;6711;117184;-80
2024/01/09 05:10:47;;;;;;;9.80;7.80;;;-1.70;37.80;;;;;;21011;6711;120060;-79
2024/01/09 05:13:23;;;;;;;10.07;8.73;;;-2.10;38.30;;;;;;20926;6711;118298;-77
2024/01/09 05:15:58;;;;;;;11.83;10.53;;;-2.40;38.80;;;;;;20811;6711;289716;-78
2024/01/09 05:18:34;;;;;;;13.20;11.80;;;-2.40;38.90;;;;;;20819;6711;277733;-80
2024/01/09 05:21:12;;;;;;;9.90;8.47;;;-2.10;39.00;;;;;;21011;6711;119325;-82
2024/01/09 05:23:46;;;;;;;11.97;10.73;;;-2.10;38.60;;;;;;20682;6711;307655;-80
2024/01/09 05:26:25;;;;;;;10.97;8.23;;;-2.10;38.60;;;;;;21033;6711;120717;-80
2024/01/09 05:28:57;;;;;;;11.20;9.03;;;-2.20;38.60;;;;;;20923;6740;118393;-81
2024/01/09 05:31:34;;;;;;;13.07;11.63;;;-2.40;39.00;;;;;;20772;6725;278383;-80
2024/01/09 05:34:11;;;;;;;12.63;11.33;;;-2.50;38.90;;;;;;20632;6740;285269;-81
2024/01/09 05:36:48;;;;;;;13.53;12.13;;;-1.90;38.10;;;;;;20803;6710;276670;-80
2024/01/09 05:39:23;;;;;;;13.70;12.30;;;-1.90;38.00;;;;;;20822;6710;306083;-81
2024/01/09 05:41:58;;;;;;;11.23;8.60;;;-1.70;37.70;;;;;;21035;6710;117026;-81
2024/01/09 05:44:34;;;;;;;12.53;11.23;;;-1.90;37.80;;;;;;20612;6710;279808;-79
2024/01/09 05:47:09;;;;;;;10.30;9.23;;;-1.90;38.00;;;;;;21011;6710;119877;-80
2024/01/09 05:49:45;;;;;;;12.90;11.47;;;-2.10;38.00;;;;;;20829;6711;276170;-80
2024/01/09 05:52:23;;;;;;;13.03;11.43;;;-2.00;38.20;;;;;;20821;6711;275771;-81
2024/01/09 05:54:56;;;;;;;10.67;9.10;;;-1.80;37.80;;;;;;20831;6767;127114;-78
2024/01/09 05:57:32;;;;;;;13.20;11.80;;;-2.00;37.80;;;;;;20811;6711;276306;-79
2024/01/09 06:00:08;;;;;;;13.27;11.80;;;-1.70;37.90;;;;;;20817;6711;305630;-79
2024/01/09 06:02:44;;;;;;;12.90;8.93;;;-1.70;37.90;;;;;;20988;6711;117196;-79
2024/01/09 06:05:19;;;;;;;13.73;12.00;;;-1.80;38.60;;;;;;20810;6711;305680;-79
2024/01/09 06:07:56;;;;;;;14.17;10.37;;;-1.90;38.40;;;;;;21034;6711;117187;-77
2024/01/09 06:10:32;;;;;;;10.40;8.50;;;-1.90;38.40;;;;;;21069;6711;117710;-81
2024/01/09 06:13:08;;;;;;;10.73;8.20;;;-2.10;38.80;;;;;;20967;6711;117583;-80
2024/01/09 06:15:44;;;;;;;13.23;11.83;;;-2.30;39.40;;;;;;20808;6711;306729;-77
2024/01/09 06:18:19;;;;;;;11.20;9.47;;;-2.20;39.60;;;;;;21026;6711;117788;-79
2024/01/09 06:20:55;;;;;;;26.87;15.57;;;-2.00;39.40;;;;;;20791;6711;276653;-77
2024/01/09 06:23:31;;;;;;;14.20;12.70;;;-2.00;39.30;;;;;;20709;6711;309413;-77
2024/01/09 06:26:07;;;;;;;12.53;9.87;;;-1.70;38.80;;;;;;21032;6711;117164;-77
2024/01/09 06:28:43;;;;;;;12.73;9.37;;;-1.70;38.60;;;;;;21017;6711;117199;-77
2024/01/09 06:31:19;;;;;;;10.87;8.80;;;-2.00;39.60;;;;;;21018;6710;117173;-79
2024/01/09 06:33:56;;;;;;;11.97;8.50;;;-2.40;39.80;;;;;;20890;6711;117915;-77
2024/01/09 06:36:31;;;;;;;11.70;8.53;;;-2.40;39.80;;;;;;21040;6711;122288;-78
2024/01/09 06:39:09;;;;;;;15.53;12.47;;;-2.60;40.00;;;;;;20799;6711;305060;-78
2024/01/09 06:41:45;;;;;;;16.95;13.27;;;-2.50;40.00;;;;;;20823;6710;317663;-78
2024/01/09 06:44:22;;;;;;;18.17;11.60;;;-2.20;39.70;;;;;;20871;6710;117907;-78
2024/01/09 06:46:57;;;;;;;17.80;11.07;;;-2.20;39.00;;;;;;21005;6710;128191;-78
2024/01/09 06:49:34;;;;;;;12.13;9.77;;;-2.40;39.30;;;;;;21054;6710;117158;-78
2024/01/09 06:52:10;;;;;;;15.80;13.87;;;-2.60;39.80;;;;;;20818;6710;306485;-78
2024/01/09 06:54:45;;;;;;;15.80;14.20;;;-2.50;39.90;;;;;;20602;6710;280104;-78
2024/01/09 06:57:25;;;;;;;14.75;13.32;;;-2.20;39.30;;;;;;20841;6710;278233;-78
2024/01/09 06:59:58;;;;;;;13.27;10.90;;;-1.90;38.80;;;;;;21055;6711;117602;-78
2024/01/09 07:02:35;;;;;;;17.90;14.27;;;-2.00;38.70;;;;;;20833;6711;304530;-79
2024/01/09 07:05:11;;;;;;;13.60;10.97;;;-2.10;38.70;;;;;;21082;6711;122579;-79
2024/01/09 07:07:46;;;;;;;15.03;13.40;;;-2.20;38.90;;;;;;20845;6711;305133;-80
2024/01/09 07:10:23;;;;;;;16.30;12.20;;;-2.20;39.10;;;;;;21050;6711;117294;-81
2024/01/09 07:12:58;;;;;;;14.40;12.90;;;-2.20;39.10;;;;;;20727;6711;337768;-80
2024/01/09 07:15:34;;;;;;;16.87;14.00;;;-2.20;39.10;;;;;;20826;6711;296249;-81
2024/01/09 07:18:10;;;;;;;15.07;13.47;;;-1.70;38.60;;;;;;20821;6711;276736;-81
2024/01/09 07:20:45;;;;;;;15.77;10.70;;;-1.80;38.50;;;;;;21010;6711;117808;-79
2024/01/09 07:23:21;;;;;;;15.37;13.17;;;-1.90;38.60;;;;;;20728;6711;279096;-79
2024/01/09 07:25:57;;;;;;;14.73;13.13;;;-1.90;39.20;;;;;;20821;6711;277807;-79
2024/01/09 07:28:33;;;;;;;16.20;13.85;;;-1.70;38.70;;;;;;20815;6711;303653;-79
2024/01/09 07:31:09;;;;;;;15.80;13.70;;;-1.50;38.10;;;;;;20802;6711;308397;-79
2024/01/09 07:33:46;;;;;;;13.70;10.03;;;-1.70;37.90;;;;;;20903;6711;120740;-79
2024/01/09 07:36:21;;;;;;;12.00;10.37;;;-1.70;37.90;;;;;;21041;6711;117423;-80
2024/01/09 07:38:56;;;;;;;15.40;13.47;;;-2.00;38.50;;;;;;20798;6711;276739;-79
2024/01/09 07:41:32;;;;;;;16.47;14.07;;;-2.10;39.00;;;;;;20812;6711;305931;-79
2024/01/09 07:44:09;;;;;;;15.67;11.33;;;-2.00;38.70;;;;;;20867;6711;117401;-84
2024/01/09 07:46:47;;;;;;;17.17;13.90;;;-1.90;38.70;;;;;;20816;6711;306607;-78
2024/01/09 07:49:20;;;;;;;18.23;16.00;;;-2.00;38.90;;;;;;20820;6711;277606;-80
2024/01/09 07:51:55;;;;;;;19.07;15.80;;;-1.80;39.00;;;;;;20817;6711;306069;-78
2024/01/09 07:54:33;;;;;;;14.87;11.97;;;-1.60;38.60;;;;;;20834;6710;118012;-78
2024/01/09 07:57:08;;;;;;;18.83;15.43;;;-1.70;38.60;;;;;;20803;6710;306068;-79
2024/01/09 07:59:43;;;;;;;17.70;15.23;;;-1.70;38.90;;;;;;20825;6710;277559;-79
2024/01/09 08:02:19;;;;;;;20.58;15.48;;;-1.50;38.70;;;;;;20814;6710;306194;-80
2024/01/09 08:04:56;;;;;;;18.93;16.30;;;-1.40;38.20;;;;;;20620;6767;308404;-79
2024/01/09 08:07:31;;;;;;;17.80;13.40;;;-1.20;37.90;;;;;;21036;6710;120341;-79
2024/01/09 08:10:07;;;;;;;14.77;11.33;;;-1.40;38.10;;;;;;21032;6710;117308;-79
2024/01/09 08:12:44;;;;;;;17.77;10.13;;;-1.70;38.80;;;;;;20997;6711;119984;-80
2024/01/09 08:15:21;;;;;;;17.37;11.77;;;-2.10;40.60;;;;;;21048;6711;116645;-80
2024/01/09 08:17:56;;;;;;;19.50;15.32;;;-2.10;40.10;;;;;;20822;6711;315347;-86
2024/01/09 08:20:32;;;;;;;20.83;14.33;;;-1.90;40.30;;;;;;21059;6711;117190;-87
2024/01/09 08:23:07;;;;;;;20.20;17.13;;;-1.80;40.10;;;;;;20765;6711;278106;-84
2024/01/09 08:25:43;;;;;;;20.60;16.37;;;-1.60;39.90;;;;;;20856;6711;276225;-84
2024/01/09 08:28:27;;;;;;;21.67;18.70;;;-1.20;39.30;;;;;;20872;6711;297475;-84
2024/01/09 08:30:54;;;;;;;18.00;13.83;;;-0.80;38.50;;;;;;21052;6711;116911;-84
2024/01/09 08:33:34;;;;;;;17.67;12.37;;;-0.80;38.50;;;;;;20963;6711;118315;-85
2024/01/09 08:36:05;;;;;;;13.33;10.87;;;-1.00;39.10;;;;;;21067;6711;117160;-85
2024/01/09 08:38:41;;;;;;;19.17;15.57;;;-1.10;39.80;;;;;;20842;6711;285638;-85
2024/01/09 08:41:17;;;;;;;18.53;16.63;;;-0.90;39.30;;;;;;20828;6710;277816;-85
2024/01/09 08:43:53;;;;;;;21.03;16.90;;;-0.50;38.40;;;;;;20695;6711;308037;-85
2024/01/09 08:46:29;;;;;;;18.95;16.80;;;-0.10;37.80;;;;;;20831;6711;306204;-85
2024/01/09 08:49:06;;;;;;;22.70;12.83;;;0.20;37.10;;;;;;21037;6711;117291;-85
2024/01/09 08:51:43;;;;;;;16.87;12.10;;;0.20;37.30;;;;;;21053;6711;117173;-85
2024/01/09 08:54:20;;;;;;;17.77;12.03;;;0.00;37.90;;;;;;20869;6711;116969;-85
2024/01/09 08:56:54;;;;;;;13.90;11.37;;;-0.20;38.50;;;;;;21031;6711;117157;-85
2024/01/09 08:59:30;;;;;;;16.53;11.63;;;-0.30;38.90;;;;;;21051;6711;117496;-84
2024/01/09 09:02:05;;;;;;;20.20;12.97;;;-0.50;39.10;;;;;;21031;6711;116858;-80
2024/01/09 09:04:41;;;;;;;21.90;13.40;;;-0.50;39.60;;;;;;20824;6710;117509;-84
2024/01/09 09:07:20;;;;;;;22.43;16.80;;;-0.30;39.30;;;;;;20814;6710;277327;-80
2024/01/09 09:09:57;;;;;;;16.20;11.63;;;-0.20;38.70;;;;;;21030;6710;117255;-81
2024/01/09 09:12:32;;;;;;;20.58;16.80;;;-0.20;38.70;;;;;;20822;6710;305397;-82
2024/01/09 09:15:08;;;;;;;20.30;17.03;;;0.30;37.40;;;;;;20805;6710;323979;-81
2024/01/09 09:17:44;;;;;;;18.60;13.73;;;0.30;37.80;;;;;;21026;6711;117404;-80
2024/01/09 09:20:26;;;;;;;26.37;16.53;;;0.30;37.30;;;;;;21029;6710;116961;-80
2024/01/09 09:23:02;;;;;;;19.40;16.48;;;0.20;37.80;;;;;;20741;6711;306660;-80
2024/01/09 09:25:37;;;;;;;18.62;16.42;;;0.30;37.90;;;;;;20817;6711;306034;-80
2024/01/09 09:28:13;;;;;;;16.93;13.37;;;0.50;36.30;;;;;;21031;6711;117617;-80
2024/01/09 09:30:51;;;;;;;18.73;16.07;;;0.60;36.80;;;;;;20802;6711;276733;-80
2024/01/09 09:33:28;;;;;;;17.73;15.93;;;1.00;36.40;;;;;;20723;6711;308611;-79
2024/01/09 09:36:06;;;;;;;16.63;12.97;;;1.00;36.40;;;;;;21036;6711;117597;-80
2024/01/09 09:38:42;;;;;;;15.43;10.93;;;1.10;36.70;;;;;;21033;6711;117140;-79
2024/01/09 09:41:18;;;;;;;12.83;10.63;;;0.90;37.00;;;;;;21000;6710;117472;-80
2024/01/09 09:43:56;;;;;;;18.60;15.10;;;0.70;37.20;;;;;;20677;6711;308655;-79
2024/01/09 09:46:32;;;;;;;17.33;15.43;;;0.60;36.30;;;;;;20801;6711;277964;-80
2024/01/09 09:49:07;;;;;;;16.57;14.83;;;0.90;35.40;;;;;;20795;6711;303625;-79
2024/01/09 09:51:43;;;;;;;18.93;12.37;;;1.10;34.60;;;;;;21033;6711;120252;-80
2024/01/09 09:54:22;;;;;;;17.80;14.57;;;1.00;35.00;;;;;;20647;6711;279931;-80
2024/01/09 09:56:54;;;;;;;14.83;12.07;;;1.00;35.30;;;;;;21014;6711;117702;-78
2024/01/09 09:59:30;;;;;;;16.93;15.20;;;0.90;35.50;;;;;;20816;6711;276303;-78
2024/01/09 10:02:06;;;;;;;17.13;15.30;;;1.00;35.70;;;;;;20807;6711;305397;-78
2024/01/09 10:04:41;;;;;;;17.53;15.00;;;1.30;35.60;;;;;;20585;6711;309245;-78
2024/01/09 10:07:17;;;;;;;17.10;15.37;;;1.60;34.10;;;;;;20799;6710;276269;-78
2024/01/09 10:09:55;;;;;;;17.10;15.30;;;1.70;34.30;;;;;;20817;6711;275788;-79
2024/01/09 10:12:31;;;;;;;17.65;15.40;;;1.90;33.70;;;;;;20811;6711;276710;-79
2024/01/09 10:15:12;;;;;;;15.20;12.47;;;2.00;33.30;;;;;;21017;6711;192081;-79
2024/01/09 10:17:47;;;;;;;16.97;15.27;;;1.80;33.70;;;;;;20820;6710;277097;-80
2024/01/09 10:20:24;;;;;;;16.97;15.23;;;1.90;33.10;;;;;;20815;6710;305794;-79
2024/01/09 10:22:59;;;;;;;13.47;11.40;;;1.80;33.10;;;;;;20956;6710;118381;-79
2024/01/09 10:25:35;;;;;;;12.63;9.50;;;1.70;33.60;;;;;;21031;6710;118978;-79
2024/01/09 10:28:10;;;;;;;16.43;14.73;;;1.40;34.10;;;;;;20814;6710;307877;-81
2024/01/09 10:30:46;;;;;;;13.90;11.70;;;1.30;33.90;;;;;;21016;6710;117077;-80
2024/01/09 10:33:22;;;;;;;15.53;10.33;;;1.30;34.60;;;;;;20936;6710;118819;-81
2024/01/09 10:35:57;;;;;;;45.03;23.77;;;1.10;35.40;;;;;;21035;6711;117560;-79
2024/01/09 10:38:33;;;;;;;13.87;11.40;;;0.90;36.70;;;;;;21028;6711;116888;-79
2024/01/09 10:41:16;;;;;;;20.37;17.23;;;0.90;36.70;;;;;;20795;6711;319781;-80
2024/01/09 10:43:51;;;;;;;49.07;34.13;;;1.10;36.00;;;;;;20678;6711;338442;-81
2024/01/09 10:46:27;;;;;;;17.87;15.97;;;1.50;34.90;;;;;;20817;6711;306037;-80
2024/01/09 10:49:03;;;;;;;25.20;21.00;;;1.80;34.40;;;;;;20798;6711;277881;-80
2024/01/09 10:51:39;;;;;;;21.90;16.10;;;2.10;33.50;;;;;;21028;6711;117120;-80
2024/01/09 10:54:15;;;;;;;18.90;16.83;;;2.00;34.20;;;;;;20645;6711;309194;-81
2024/01/09 10:56:52;;;;;;;22.63;18.07;;;2.10;32.50;;;;;;20796;6711;305188;-81
2024/01/09 10:59:28;;;;;;;16.93;14.80;;;2.10;32.40;;;;;;20819;6711;277063;-80
2024/01/09 11:02:04;;;;;;;23.83;16.27;;;2.20;32.40;;;;;;21029;6711;117165;-81
2024/01/09 11:04:41;;;;;;;33.90;19.50;;;2.10;33.40;;;;;;20817;6711;117485;-80
2024/01/09 11:07:15;;;;;;;15.67;11.70;;;1.90;34.10;;;;;;21018;6710;117161;-80
2024/01/09 11:09:50;;;;;;;14.87;11.70;;;1.70;34.70;;;;;;21022;6711;117194;-80
2024/01/09 11:12:33;;;;;;;18.53;15.77;;;1.50;35.50;;;;;;20820;6711;307839;-80
2024/01/09 11:15:21;;;;;;;17.73;13.00;;;1.70;35.50;;;;;;21025;6711;120063;-83
2024/01/09 11:18:03;;;;;;;24.87;16.13;;;1.80;35.70;;;;;;21039;6711;119326;-81
2024/01/09 11:20:35;;;;;;;20.50;16.47;;;1.60;35.90;;;;;;20815;6711;305068;-81
2024/01/09 11:23:15;;;;;;;18.23;13.27;;;1.80;38.00;;;;;;20883;6740;121309;-82
2024/01/09 11:25:54;;;;;;;15.83;12.77;;;2.00;37.80;;;;;;21002;6723;117078;-80
2024/01/09 11:28:37;;;;;;;20.70;17.20;;;2.00;38.00;;;;;;20785;6722;278276;-81
2024/01/09 11:31:12;;;;;;;17.20;15.30;;;2.20;37.80;;;;;;20774;6722;335122;-81
2024/01/09 11:33:48;;;;;;;17.40;15.40;;;2.60;34.60;;;;;;20708;6723;307841;-80
2024/01/09 11:36:24;;;;;;;15.20;11.60;;;2.90;35.30;;;;;;21097;6710;118064;-81
2024/01/09 11:38:59;;;;;;;16.85;15.13;;;2.90;35.70;;;;;;20803;6710;324929;-83
2024/01/09 11:41:35;;;;;;;18.93;16.27;;;3.30;35.20;;;;;;20814;6710;334224;-87
2024/01/09 11:44:15;;;;;;;16.97;12.93;;;3.30;35.20;;;;;;20878;6710;117315;-84
2024/01/09 11:46:49;;;;;;;19.10;15.27;;;3.30;35.20;;;;;;20816;6711;305829;-83
2024/01/09 11:49:25;;;;;;;19.60;16.93;;;3.40;34.40;;;;;;20847;6711;278167;-81
2024/01/09 11:52:00;;;;;;;18.03;16.00;;;3.60;33.90;;;;;;20838;6711;276219;-83
2024/01/09 11:54:36;;;;;;;18.00;12.73;;;3.80;32.80;;;;;;20838;6711;117538;-84
2024/01/09 11:57:11;;;;;;;16.03;11.73;;;3.60;33.30;;;;;;21028;6711;121122;-83
2024/01/09 11:59:47;;;;;;;16.80;12.10;;;3.40;34.40;;;;;;21049;6711;116224;-84
2024/01/09 12:02:23;;;;;;;44.20;24.80;;;3.20;35.10;;;;;;20827;6711;334248;-80
2024/01/09 12:05:00;;;;;;;38.77;19.20;;;3.30;34.50;;;;;;21036;6711;118522;-82
2024/01/09 12:07:38;;;;;;;21.83;12.80;;;3.30;34.60;;;;;;21059;6711;119584;-80
2024/01/09 12:10:15;;;;;;;27.57;16.67;;;3.20;35.30;;;;;;21059;6711;117456;-82
2024/01/09 12:12:50;;;;;;;15.07;10.50;;;3.00;35.50;;;;;;20990;6711;118548;-82
2024/01/09 12:15:25;;;;;;;19.63;12.47;;;2.80;35.90;;;;;;21032;6711;116431;-82
2024/01/09 12:18:02;;;;;;;20.07;15.70;;;2.70;36.60;;;;;;20840;6711;307507;-82
2024/01/09 12:20:38;;;;;;;22.07;16.80;;;2.90;35.40;;;;;;20829;6711;288636;-85
2024/01/09 12:23:12;;;;;;;12.87;11.20;;;3.30;33.30;;;;;;20938;6710;120557;-72
2024/01/09 12:25:49;;;;;;;12.67;10.20;;;3.40;33.80;;;;;;21027;6711;117089;-75
2024/01/09 12:28:25;;;;;;;13.77;9.73;;;3.20;34.00;;;;;;21030;6711;120209;-74
2024/01/09 12:31:03;;;;;;;14.03;9.93;;;2.90;34.70;;;;;;21003;6711;116988;-75
2024/01/09 12:33:36;;;;;;;14.43;10.47;;;2.70;35.00;;;;;;20912;6711;119887;-75
2024/01/09 12:36:15;;;;;;;16.57;11.30;;;2.30;35.70;;;;;;21026;6711;120554;-75
2024/01/09 12:38:48;;;;;;;12.27;9.87;;;2.30;35.70;;;;;;21012;6711;120556;-76
2024/01/09 12:41:26;;;;;;;12.77;9.37;;;2.20;35.90;;;;;;21027;6710;117037;-76
2024/01/09 12:44:15;;;;;;;13.90;12.47;;;2.10;36.20;;;;;;20660;6710;309352;-76
2024/01/09 12:46:48;;;;;;;10.33;9.33;;;2.30;35.00;;;;;;21001;6767;126128;-78
2024/01/09 12:49:24;;;;;;;12.43;9.23;;;2.40;35.60;;;;;;21027;6710;117494;-77
2024/01/09 12:52:01;;;;;;;10.23;9.13;;;2.30;35.50;;;;;;21027;6710;116868;-79
2024/01/09 12:54:36;;;;;;;13.60;12.20;;;2.20;35.70;;;;;;20605;6710;280134;-76
2024/01/09 12:57:13;;;;;;;13.90;12.40;;;2.40;35.00;;;;;;20780;6711;307169;-77
2024/01/09 12:59:49;;;;;;;13.97;10.40;;;2.70;33.70;;;;;;21025;6711;116931;-77
2024/01/09 13:02:23;;;;;;;14.17;12.13;;;2.90;34.40;;;;;;20809;6711;306584;-76
2024/01/09 13:05:02;;;;;;;13.77;12.40;;;3.00;32.60;;;;;;20795;6711;307085;-81
2024/01/09 13:07:37;;;;;;;14.30;12.27;;;3.20;31.40;;;;;;20814;6711;277567;-80